Airfield :
LOGIN :

Register | Disclaimer

   EN    FR    IT 

 










Legend :    VFR   Marginal VFR   IFR   Intensive IFR   Very Intensive IFR
Visi :
Ceiling :
>= 8 km
>= 3000ft
5 to 8 km
1000 to 3000 ft
1500m to 5 km
500 to 1000 ft
800 to 1500m
200 to 500 ft
< 800m
< 200 ft
Symbols :   Thunderstorms  Fog  Heavy snow  Heavy precipitations  Wind > 20 kt
SIGMETs :     Misc.  Thunderstorms  Icing  Turbulence  Mountain Waves  Volcanic Ashes






- Airport Elevation : 297 ft


EGVP - Middle Wallop

CURRENT METAR :
  • 020450Z AUTO 14015KT 9999 -RA OVC007/// 05/03 Q0985

EXPIRED METARs :
  • 020420Z AUTO 16015KT 4700 +RA OVC006/// 05/04 Q0985
  • 012050Z AUTO 13008KT 9999 // FEW025/// 03/02 Q0989
  • 020350Z AUTO 12015KT 4600 RA OVC009/// 05/04 Q0985
  • 020320Z AUTO 09009KT 9999 -RA OVC006/// 04/04 Q0986
  • 020250Z AUTO 09006KT 9999 RA OVC008/// 03/03 Q0987
  • 020220Z AUTO 15008KT 9000 RA OVC008/// 04/03 Q0987
  • 020150Z AUTO 16011KT 3600 RA BKN008/// BKN023/// 04/03 Q0988
  • 020120Z AUTO 16013KT 9999 -RA OVC009/// 04/03 Q0988
  • 020050Z AUTO 13008KT 9999 // FEW024/// 03/02 Q0988
  • 020020Z AUTO 14009KT 9999 // FEW031/// 03/02 Q0988
  • 012350Z AUTO 14008KT 9999 // FEW016/// 03/02 Q0988

Expired Forecast.
ATIS : +44 1980 674 142



MET'MAP, your aeronautical weather chart ! - Copyright ORBIFLY December 2007 - Disclaimer

ORBIFLY MET'MAP TEAM :

Programming & Development : Alexandra Zaïnal
Original concept : Baudouin d'Aumeries
Technical & hardware support : Manuel Goepfert
Assistance : Marc-Olivier Méhu




SOURCES & CREDITS :

   NOAA